| time (UTC) | temp C | wind direction | speed KPH | gust KPH | rain 1hr cm | rain 24hr cm | rain mn cm | humidity % | barometer mb |
| 20260510205022 | 17 | 270 | 4.8 | 14.5 | 0.00 | 0.13 | 0.13 | 58 | 1011.4 |
| 20260510204022 | 17 | 203 | 4.8 | 14.5 | 0.00 | 0.13 | 0.13 | 60 | 1011.3 |
| 20260510203102 | 17 | 270 | 3.2 | 12.9 | 0.00 | 0.13 | 0.13 | 63 | 1011.3 |
| 20260510202022 | 17 | 225 | 4.8 | 16.1 | 0.00 | 0.13 | 0.13 | 62 | 1011.4 |
| 20260510201022 | 17 | 225 | 8.0 | 19.3 | 0.00 | 0.13 | 0.13 | 62 | 1011.5 |
| 20260510200019 | 17 | 270 | 6.4 | 17.7 | 0.00 | 0.13 | 0.13 | 67 | 1011.5 |
| 20260510195024 | 17 | 270 | 6.4 | 19.3 | 0.00 | 0.13 | 0.13 | 68 | 1011.5 |
| 20260510194022 | 17 | 270 | 6.4 | 14.5 | 0.00 | 0.13 | 0.13 | 69 | 1011.6 |
| 20260510193021 | 16 | 270 | 6.4 | 19.3 | 0.00 | 0.13 | 0.13 | 72 | 1011.6 |
| 20260510192022 | 16 | 270 | 4.8 | 12.9 | 0.00 | 0.13 | 0.13 | 73 | 1011.6 |
| 20260510191022 | 15 | 225 | 3.2 | 14.5 | 0.00 | 0.13 | 0.13 | 78 | 1011.6 |
| 20260510185018 | 15 | 225 | 1.6 | 8.0 | 0.00 | 0.13 | 0.13 | 83 | 1011.6 |
| 20260510184042 | 15 | 0.0 | 3.2 | 0.00 | 0.13 | 0.13 | 84 | 1011.5 | |
| 20260510183022 | 15 | 0.0 | 4.8 | 0.00 | 0.15 | 0.13 | 82 | 1011.6 | |
| 20260510182022 | 15 | 270 | 1.6 | 8.0 | 0.00 | 0.18 | 0.13 | 83 | 1011.7 |
| 20260510181022 | 15 | 270 | 1.6 | 6.4 | 0.00 | 0.18 | 0.13 | 85 | 1011.8 |
| 20260510180022 | 15 | 270 | 1.6 | 8.0 | 0.03 | 0.20 | 0.13 | 84 | 1011.8 |
| 20260510175019 | 15 | 270 | 1.6 | 9.7 | 0.05 | 0.23 | 0.13 | 86 | 1011.9 |
| 20260510174040 | 14 | 180 | 3.2 | 11.3 | 0.08 | 0.23 | 0.13 | 91 | 1011.9 |
| 20260510173022 | 13 | 203 | 1.6 | 9.7 | 0.08 | 0.23 | 0.13 | 93 | 1011.8 |
| 20260510172020 | 12 | 180 | 1.6 | 6.4 | 0.08 | 0.23 | 0.13 | 93 | 1011.9 |
| 20260510171022 | 12 | 225 | 1.6 | 9.7 | 0.08 | 0.23 | 0.13 | 92 | 1012.2 |
| 20260510170022 | 12 | 0.0 | 1.6 | 0.05 | 0.20 | 0.10 | 92 | 1012.0 | |
| 20260510165021 | 13 | 0.0 | 1.6 | 0.03 | 0.18 | 0.08 | 91 | 1011.9 | |
| 20260510164038 | 13 | 0.0 | 1.6 | 0.03 | 0.15 | 0.05 | 92 | 1011.9 | |
| 20260510163018 | 13 | 0.0 | 1.6 | 0.05 | 0.15 | 0.05 | 92 | 1011.7 | |
| 20260510162022 | 12 | 0.0 | 0.0 | 0.05 | 0.15 | 0.05 | 91 | 1011.6 | |
| 20260510161022 | 12 | 0.0 | 3.2 | 0.05 | 0.15 | 0.05 | 92 | 1011.5 | |
| 20260510160022 | 12 | 0.0 | 1.6 | 0.05 | 0.15 | 0.05 | 91 | 1011.5 | |
| 20260510155022 | 13 | 0.0 | 3.2 | 0.05 | 0.18 | 0.05 | 90 | 1011.9 | |
| 20260510154042 | 13 | 0.0 | 3.2 | 0.03 | 0.15 | 0.03 | 88 | 1011.9 | |
| 20260510153019 | 13 | 0.0 | 4.8 | 0.00 | 0.15 | 0.00 | 85 | 1011.7 | |
| 20260510152021 | 13 | 0.0 | 1.6 | 0.00 | 0.15 | 0.00 | 84 | 1011.4 | |
| 20260510151022 | 13 | 203 | 1.6 | 8.0 | 0.00 | 0.15 | 0.00 | 84 | 1011.2 |
| 20260510150022 | 13 | 203 | 3.2 | 11.3 | 0.00 | 0.15 | 0.00 | 84 | 1010.8 |
| 20260510145022 | 13 | 203 | 3.2 | 9.7 | 0.00 | 0.15 | 0.00 | 85 | 1010.9 |
| 20260510144022 | 13 | 180 | 1.6 | 8.0 | 0.00 | 0.15 | 0.00 | 84 | 1011.0 |
| 20260510143042 | 14 | 158 | 3.2 | 12.9 | 0.00 | 0.15 | 0.00 | 84 | 1011.1 |
| 20260510142017 | 14 | 180 | 3.2 | 16.1 | 0.00 | 0.15 | 0.00 | 84 | 1011.4 |
| 20260510141042 | 13 | 180 | 3.2 | 12.9 | 0.00 | 0.15 | 0.00 | 85 | 1011.4 |
| 20260510140023 | 13 | 158 | 3.2 | 11.3 | 0.00 | 0.15 | 0.00 | 87 | 1011.4 |
| 20260510135022 | 12 | 158 | 4.8 | 12.9 | 0.00 | 0.15 | 0.00 | 90 | 1011.3 |
| 20260510134021 | 12 | 158 | 4.8 | 12.9 | 0.00 | 0.15 | 0.00 | 90 | 1011.4 |
| 20260510133022 | 12 | 180 | 3.2 | 9.7 | 0.00 | 0.15 | 0.00 | 91 | 1011.4 |
| 20260510132018 | 12 | 135 | 4.8 | 12.9 | 0.00 | 0.15 | 0.00 | 90 | 1011.1 |
| 20260510131038 | 12 | 113 | 4.8 | 12.9 | 0.00 | 0.15 | 0.00 | 90 | 1011.1 |
| 20260510130022 | 11 | 135 | 3.2 | 14.5 | 0.00 | 0.15 | 0.00 | 91 | 1011.2 |
| 20260510125022 | 11 | 135 | 3.2 | 8.0 | 0.00 | 0.15 | 0.00 | 92 | 1011.5 |
| 20260510124021 | 11 | 158 | 4.8 | 12.9 | 0.00 | 0.15 | 0.00 | 92 | 1011.4 |
| 20260510123022 | 11 | 158 | 4.8 | 12.9 | 0.00 | 0.15 | 0.00 | 93 | 1011.2 |
| 20260510122021 | 10 | 158 | 3.2 | 11.3 | 0.00 | 0.15 | 0.00 | 93 | 1011.4 |
| 20260510121018 | 10 | 158 | 1.6 | 8.0 | 0.00 | 0.15 | 0.00 | 93 | 1011.2 |
| 20260510120018 | 10 | 0.0 | 8.0 | 0.00 | 0.15 | 0.00 | 94 | 1011.0 | |
| 20260510115021 | 10 | 113 | 4.8 | 11.3 | 0.00 | 0.15 | 0.00 | 94 | 1011.0 |
| 20260510114022 | 10 | 113 | 4.8 | 12.9 | 0.00 | 0.15 | 0.00 | 93 | 1010.8 |
| 20260510113022 | 10 | 113 | 4.8 | 12.9 | 0.00 | 0.15 | 0.00 | 93 | 1011.0 |
| 20260510112021 | 10 | 90 | 3.2 | 11.3 | 0.00 | 0.15 | 0.00 | 94 | 1010.7 |
| 20260510111022 | 10 | 113 | 1.6 | 6.4 | 0.00 | 0.15 | 0.00 | 94 | 1010.9 |
| 20260510110019 | 9 | 90 | 3.2 | 11.3 | 0.00 | 0.15 | 0.00 | 94 | 1010.7 |
| 20260510105019 | 9 | 135 | 3.2 | 12.9 | 0.00 | 0.15 | 0.00 | 94 | 1010.5 |
| 20260510104022 | 9 | 113 | 6.4 | 14.5 | 0.00 | 0.15 | 0.00 | 94 | 1010.6 |
| 20260510103022 | 9 | 113 | 6.4 | 12.9 | 0.00 | 0.15 | 0.00 | 95 | 1010.2 |
| 20260510102022 | 9 | 90 | 6.4 | 14.5 | 0.00 | 0.15 | 0.00 | 95 | 1010.1 |
| 20260510101025 | 9 | 90 | 3.2 | 12.9 | 0.00 | 0.15 | 0.00 | 95 | 1010.0 |
| 20260510100022 | 9 | 90 | 4.8 | 12.9 | 0.00 | 0.15 | 0.00 | 95 | 1009.8 |
| 20260510095018 | 9 | 113 | 6.4 | 17.7 | 0.00 | 0.15 | 0.00 | 95 | 1009.5 |
| 20260510094042 | 8 | 90 | 9.7 | 22.5 | 0.00 | 0.15 | 0.00 | 95 | 1009.4 |
| 20260510093021 | 8 | 113 | 9.7 | 20.9 | 0.00 | 0.15 | 0.00 | 95 | 1009.3 |
| 20260510092021 | 8 | 113 | 8.0 | 16.1 | 0.00 | 0.15 | 0.00 | 95 | 1009.0 |
| 20260510091043 | 8 | 113 | 6.4 | 12.9 | 0.00 | 0.15 | 0.00 | 94 | 1009.2 |
| 20260510090042 | 8 | 135 | 4.8 | 12.9 | 0.00 | 0.15 | 0.00 | 94 | 1009.5 |
| 20260510085021 | 8 | 113 | 6.4 | 12.9 | 0.00 | 0.15 | 0.00 | 94 | 1009.5 |
| 20260510084018 | 8 | 135 | 3.2 | 12.9 | 0.00 | 0.15 | 0.00 | 94 | 1009.8 |
| 20260510083021 | 8 | 135 | 3.2 | 8.0 | 0.00 | 0.15 | 0.00 | 94 | 1010.0 |
| 20260510082021 | 8 | 158 | 3.2 | 11.3 | 0.00 | 0.15 | 0.00 | 94 | 1010.1 |
| 20260510081022 | 8 | 113 | 4.8 | 14.5 | 0.00 | 0.15 | 0.00 | 94 | 1010.0 |
| 20260510080022 | 8 | 113 | 4.8 | 11.3 | 0.00 | 0.15 | 0.00 | 94 | 1009.8 |
| 20260510075022 | 8 | 113 | 3.2 | 12.9 | 0.00 | 0.15 | 0.00 | 95 | 1009.9 |
| 20260510074018 | 8 | 90 | 4.8 | 11.3 | 0.00 | 0.15 | 0.00 | 95 | 1009.7 |
| 20260510073018 | 8 | 90 | 4.8 | 12.9 | 0.00 | 0.15 | 0.00 | 94 | 1009.7 |
| 20260510072021 | 8 | 113 | 8.0 | 16.1 | 0.00 | 0.15 | 0.00 | 94 | 1009.7 |
| 20260510071022 | 8 | 135 | 6.4 | 16.1 | 0.00 | 0.15 | 0.00 | 94 | 1009.7 |
| 20260510070021 | 8 | 135 | 3.2 | 11.3 | 0.00 | 0.15 | 0.00 | 94 | 1010.1 |
| 20260510065042 | 8 | 113 | 6.4 | 16.1 | 0.00 | 0.15 | 0.00 | 94 | 1010.0 |
| 20260510064021 | 8 | 113 | 6.4 | 16.1 | 0.00 | 0.15 | 0.00 | 94 | 1010.0 |
| 20260510063018 | 8 | 113 | 8.0 | 16.1 | 0.00 | 0.15 | 0.00 | 94 | 1009.8 |
| 20260510062019 | 8 | 113 | 4.8 | 11.3 | 0.00 | 0.15 | 0.00 | 94 | 1010.1 |
| 20260510061022 | 8 | 113 | 6.4 | 17.7 | 0.00 | 0.15 | 0.00 | 94 | 1010.2 |
| 20260510060042 | 8 | 113 | 8.0 | 19.3 | 0.00 | 0.15 | 0.00 | 96 | 1010.2 |
| 20260510055022 | 7 | 113 | 8.0 | 17.7 | 0.00 | 0.15 | 0.00 | 95 | 1010.2 |
| 20260510054022 | 7 | 113 | 8.0 | 14.5 | 0.00 | 0.15 | 0.00 | 95 | 1010.4 |
| 20260510053025 | 7 | 90 | 6.4 | 14.5 | 0.00 | 0.15 | 0.00 | 95 | 1010.4 |
| 20260510052038 | 7 | 113 | 6.4 | 16.1 | 0.00 | 0.15 | 0.00 | 95 | 1010.3 |
| 20260510051019 | 7 | 113 | 8.0 | 17.7 | 0.00 | 0.15 | 0.00 | 95 | 1010.7 |
| 20260510050042 | 7 | 135 | 6.4 | 12.9 | 0.00 | 0.15 | 0.00 | 95 | 1010.8 |
| 20260510045042 | 7 | 135 | 8.0 | 17.7 | 0.00 | 0.15 | 0.00 | 95 | 1010.7 |
| 20260510044021 | 7 | 113 | 8.0 | 17.7 | 0.00 | 0.15 | 0.00 | 95 | 1010.5 |
| 20260510043020 | 7 | 135 | 8.0 | 17.7 | 0.00 | 0.15 | 0.00 | 95 | 1010.5 |
| 20260510042042 | 8 | 135 | 8.0 | 20.9 | 0.00 | 0.15 | 0.00 | 94 | 1010.6 |
| 20260510041018 | 8 | 135 | 8.0 | 19.3 | 0.00 | 0.15 | 0.00 | 94 | 1010.6 |
| 20260510040021 | 8 | 135 | 11.3 | 22.5 | 0.00 | 0.15 | 0.15 | 94 | 1010.5 |
| 20260510035021 | 8 | 135 | 9.7 | 19.3 | 0.00 | 0.15 | 0.15 | 94 | 1010.6 |
| 20260510034022 | 8 | 135 | 9.7 | 22.5 | 0.00 | 0.15 | 0.15 | 94 | 1010.5 |
| 20260510033021 | 8 | 113 | 11.3 | 22.5 | 0.00 | 0.15 | 0.15 | 93 | 1010.6 |
| 20260510032017 | 8 | 135 | 9.7 | 19.3 | 0.00 | 0.15 | 0.15 | 94 | 1010.7 |
| 20260510031017 | 7 | 113 | 9.7 | 20.9 | 0.00 | 0.15 | 0.15 | 94 | 1010.8 |
| 20260510030021 | 7 | 113 | 9.7 | 17.7 | 0.00 | 0.15 | 0.15 | 94 | 1010.9 |
| 20260510025021 | 7 | 135 | 8.0 | 17.7 | 0.00 | 0.15 | 0.15 | 93 | 1010.8 |
| 20260510024041 | 7 | 113 | 9.7 | 22.5 | 0.00 | 0.15 | 0.15 | 93 | 1011.0 |
| 20260510023022 | 7 | 135 | 9.7 | 17.7 | 0.00 | 0.15 | 0.15 | 93 | 1011.1 |
| 20260510022021 | 7 | 135 | 8.0 | 17.7 | 0.00 | 0.15 | 0.15 | 93 | 1011.2 |
| 20260510021017 | 7 | 113 | 9.7 | 20.9 | 0.00 | 0.15 | 0.15 | 93 | 1011.1 |
| 20260510020017 | 7 | 113 | 8.0 | 19.3 | 0.00 | 0.15 | 0.15 | 93 | 1011.2 |
| 20260510015041 | 7 | 113 | 8.0 | 17.7 | 0.00 | 0.15 | 0.15 | 93 | 1011.4 |
| 20260510014042 | 7 | 113 | 9.7 | 19.3 | 0.00 | 0.15 | 0.15 | 93 | 1011.3 |
| 20260510013021 | 7 | 113 | 8.0 | 17.7 | 0.00 | 0.15 | 0.15 | 93 | 1011.3 |
| 20260510012021 | 7 | 135 | 8.0 | 16.1 | 0.00 | 0.15 | 0.15 | 93 | 1011.3 |
| 20260510011021 | 7 | 113 | 9.7 | 17.7 | 0.00 | 0.15 | 0.15 | 93 | 1011.1 |
| 20260510010017 | 8 | 113 | 9.7 | 19.3 | 0.00 | 0.15 | 0.15 | 93 | 1011.2 |
| 20260510005021 | 8 | 135 | 8.0 | 16.1 | 0.00 | 0.15 | 0.15 | 92 | 1011.2 |
| 20260510004021 | 7 | 135 | 8.0 | 19.3 | 0.00 | 0.15 | 0.15 | 93 | 1010.9 |
| 20260510003021 | 7 | 113 | 8.0 | 16.1 | 0.00 | 0.15 | 0.15 | 93 | 1010.9 |
| 20260510002022 | 7 | 113 | 9.7 | 20.9 | 0.00 | 0.15 | 0.15 | 93 | 1010.8 |
| 20260510001019 | 7 | 113 | 8.0 | 16.1 | 0.00 | 0.15 | 0.15 | 93 | 1010.5 |
| 20260510000021 | 8 | 113 | 9.7 | 20.9 | 0.00 | 0.15 | 0.15 | 92 | 1010.4 |
| 20260509235017 | 8 | 113 | 4.8 | 12.9 | 0.00 | 0.15 | 0.15 | 92 | 1010.3 |
| 20260509234021 | 8 | 113 | 6.4 | 14.5 | 0.00 | 0.15 | 0.15 | 92 | 1010.0 |
| 20260509233021 | 8 | 113 | 6.4 | 17.7 | 0.00 | 0.15 | 0.15 | 92 | 1009.9 |
| 20260509232021 | 8 | 113 | 11.3 | 27.4 | 0.00 | 0.15 | 0.15 | 92 | 1009.9 |
| 20260509231021 | 7 | 113 | 11.3 | 24.1 | 0.00 | 0.15 | 0.15 | 92 | 1009.8 |
| 20260509230041 | 7 | 113 | 11.3 | 24.1 | 0.00 | 0.15 | 0.15 | 93 | 1009.8 |
| 20260509225022 | 7 | 113 | 12.9 | 29.0 | 0.00 | 0.15 | 0.15 | 93 | 1009.8 |
| 20260509224017 | 7 | 113 | 11.3 | 25.7 | 0.00 | 0.15 | 0.15 | 93 | 1009.9 |
| 20260509223021 | 8 | 113 | 8.0 | 17.7 | 0.00 | 0.15 | 0.15 | 94 | 1010.0 |
| 20260509222021 | 8 | 135 | 6.4 | 16.1 | 0.00 | 0.15 | 0.15 | 94 | 1010.1 |
| 20260509221021 | 8 | 113 | 4.8 | 14.5 | 0.00 | 0.15 | 0.15 | 94 | 1010.3 |
| 20260509220021 | 8 | 113 | 4.8 | 9.7 | 0.00 | 0.15 | 0.15 | 93 | 1010.4 |
| 20260509215022 | 8 | 113 | 8.0 | 17.7 | 0.00 | 0.15 | 0.15 | 92 | 1010.4 |
| 20260509214042 | 8 | 113 | 6.4 | 12.9 | 0.00 | 0.15 | 0.15 | 92 | 1010.6 |
| 20260509213017 | 8 | 180 | 3.2 | 12.9 | 0.00 | 0.15 | 0.15 | 92 | 1010.6 |
| 20260509212021 | 8 | 135 | 4.8 | 11.3 | 0.00 | 0.15 | 0.15 | 92 | 1010.5 |
| 20260509211021 | 8 | 180 | 4.8 | 11.3 | 0.00 | 0.15 | 0.15 | 93 | 1010.6 |
| 20260509210022 | 8 | 180 | 1.6 | 8.0 | 0.00 | 0.15 | 0.15 | 93 | 1010.5 |